createdAt,value
2024-02-01T00:01:20.290Z,97314.34
2024-02-01T00:03:48.525Z,97310.09
2024-02-01T00:06:17.117Z,97306.69
2024-02-01T00:08:45.651Z,97308.47
2024-02-01T00:11:14.010Z,97308.38
2024-02-01T00:13:43.721Z,97301.81
2024-02-01T00:16:12.000Z,97310.22
2024-02-01T00:18:40.646Z,97301.00
2024-02-01T00:21:09.011Z,97292.69
2024-02-01T00:23:37.396Z,97295.19
2024-02-01T00:26:05.954Z,97294.25
2024-02-01T00:28:34.175Z,97298.44
2024-02-01T00:31:03.900Z,97280.94
2024-02-01T00:33:32.383Z,97285.16
2024-02-01T00:36:00.904Z,97265.78
2024-02-01T00:38:29.234Z,97277.50
2024-02-01T00:40:57.533Z,97274.06
2024-02-01T00:43:25.932Z,97242.03
2024-02-01T00:45:54.173Z,97262.13
2024-02-01T00:48:23.869Z,97255.63
2024-02-01T00:50:52.254Z,97249.72
2024-02-01T00:53:20.643Z,97245.38
2024-02-01T00:55:48.882Z,97232.69
2024-02-01T00:58:17.253Z,97244.28
2024-02-01T01:00:45.701Z,97229.34
2024-02-01T01:03:14.113Z,97223.50
2024-02-01T01:05:43.891Z,97234.44
2024-02-01T01:08:12.392Z,97227.78
2024-02-01T01:10:40.723Z,97221.00
2024-02-01T01:13:09.087Z,97210.84
2024-02-01T01:15:37.328Z,97215.84
2024-02-01T01:18:09.087Z,97219.88
2024-02-01T01:20:37.557Z,97211.44
2024-02-01T01:23:07.450Z,97195.16
2024-02-01T01:25:35.791Z,97214.50
2024-02-01T01:28:04.267Z,97205.31
2024-02-01T01:30:32.446Z,97203.50
2024-02-01T01:33:00.773Z,97204.44
2024-02-01T01:35:29.148Z,97183.56
2024-02-01T01:37:57.433Z,97177.63
2024-02-01T01:40:27.422Z,97179.34
2024-02-01T01:42:55.708Z,97169.44
2024-02-01T01:45:23.855Z,97165.03
2024-02-01T01:47:52.368Z,97177.72
2024-02-01T01:50:21.302Z,97154.91
2024-02-01T01:52:50.884Z,97165.03
2024-02-01T01:55:19.502Z,97147.44
2024-02-01T01:57:49.380Z,97151.72
2024-02-01T02:00:18.034Z,97139.94
2024-02-01T02:02:46.674Z,97143.25
2024-02-01T02:05:15.020Z,97132.56
2024-02-01T02:07:43.380Z,97116.66
2024-02-01T02:10:16.896Z,97129.97
2024-02-01T02:12:45.810Z,97113.94
2024-02-01T02:15:17.669Z,97133.81
2024-02-01T02:17:46.308Z,97119.72
2024-02-01T02:20:21.087Z,97122.38
2024-02-01T02:22:55.384Z,97115.66
2024-02-01T02:25:26.165Z,97105.47
2024-02-01T02:27:54.392Z,97093.25
2024-02-01T02:30:21.574Z,97081.72
2024-02-01T02:32:50.297Z,97081.84
2024-02-01T02:35:19.019Z,97065.78
2024-02-01T02:37:48.095Z,97075.25
2024-02-01T02:40:19.802Z,97080.25
2024-02-01T02:42:48.124Z,97087.72
2024-02-01T02:45:16.912Z,97080.25
2024-02-01T02:47:46.379Z,97081.72
2024-02-01T02:50:15.010Z,97093.63
2024-02-01T02:52:45.495Z,97062.31
2024-02-01T02:55:14.237Z,97076.59
2024-02-01T02:57:43.894Z,97076.41
2024-02-01T03:00:20.312Z,97070.31
2024-02-01T03:02:50.697Z,97073.81
2024-02-01T03:05:20.105Z,97073.81
2024-02-01T03:07:48.350Z,97088.09
2024-02-01T03:10:17.298Z,97089.09
2024-02-01T03:12:47.632Z,97093.72
2024-02-01T03:15:16.608Z,97087.91
2024-02-01T03:17:46.217Z,97083.16
2024-02-01T03:20:23.772Z,97066.13
2024-02-01T03:22:56.664Z,97068.47
2024-02-01T03:25:30.715Z,97060.94
2024-02-01T03:28:03.397Z,97079.19
2024-02-01T03:30:32.502Z,97070.03
2024-02-01T03:33:04.689Z,97073.78
2024-02-01T03:35:34.137Z,97076.50
2024-02-01T03:38:02.923Z,97069.38
2024-02-01T03:40:31.172Z,97063.09
2024-02-01T03:43:00.829Z,97064.66
2024-02-01T03:45:30.717Z,97073.84
2024-02-01T03:47:59.172Z,97080.78
2024-02-01T03:50:27.580Z,97086.78
2024-02-01T03:52:55.855Z,97085.13
2024-02-01T03:55:24.365Z,97102.19
2024-02-01T03:57:52.660Z,97110.03
2024-02-01T04:00:30.084Z,97110.00
2024-02-01T04:02:58.856Z,97113.22
2024-02-01T04:05:27.910Z,97117.41
2024-02-01T04:07:56.616Z,97110.91
2024-02-01T04:10:24.941Z,97107.13
2024-02-01T04:12:53.286Z,97108.97
2024-02-01T04:15:23.034Z,97111.56
2024-02-01T04:17:51.864Z,97113.72
2024-02-01T04:20:20.444Z,97123.63
2024-02-01T04:22:51.039Z,97126.38
2024-02-01T04:25:19.666Z,97118.81
2024-02-01T04:27:51.049Z,97112.22
2024-02-01T04:30:20.283Z,97110.75
2024-02-01T04:32:50.609Z,97109.69
2024-02-01T04:35:19.208Z,97100.94
2024-02-01T04:37:54.640Z,97102.66
2024-02-01T04:40:23.751Z,97070.63
2024-02-01T04:42:53.469Z,97081.91
2024-02-01T04:45:21.705Z,97079.50
2024-02-01T04:47:51.651Z,97089.66
2024-02-01T04:50:20.059Z,97096.25
2024-02-01T04:52:48.376Z,97107.38
2024-02-01T04:55:17.206Z,97103.22
2024-02-01T04:57:45.834Z,97091.78
2024-02-01T05:00:19.540Z,97093.38
2024-02-01T05:02:48.965Z,97094.38
2024-02-01T05:05:19.536Z,97076.97
2024-02-01T05:07:47.992Z,97080.09
2024-02-01T05:10:16.268Z,97082.56
2024-02-01T05:12:44.867Z,97076.88
2024-02-01T05:15:33.341Z,97077.91
2024-02-01T05:18:01.922Z,97081.69
2024-02-01T05:20:30.260Z,97088.34
2024-02-01T05:22:58.660Z,97086.34
2024-02-01T05:25:27.028Z,97090.72
2024-02-01T05:27:55.985Z,97087.28
2024-02-01T05:30:25.289Z,97081.16
2024-02-01T05:32:56.522Z,97101.34
2024-02-01T05:35:29.938Z,97085.56
2024-02-01T05:38:01.543Z,97085.50
2024-02-01T05:40:31.202Z,97088.66
2024-02-01T05:42:59.868Z,97084.00
2024-02-01T05:45:30.869Z,97073.59
2024-02-01T05:48:01.712Z,97090.50
2024-02-01T05:50:30.774Z,97109.78
2024-02-01T05:52:59.008Z,97118.63
2024-02-01T05:55:27.447Z,97105.47
2024-02-01T05:57:55.850Z,97099.19
2024-02-01T06:00:25.492Z,97109.53
2024-02-01T06:02:54.761Z,97108.00
2024-02-01T06:05:26.138Z,97118.25
2024-02-01T06:07:54.616Z,97099.50
2024-02-01T06:10:23.316Z,97087.94
2024-02-01T06:12:51.930Z,97091.22
2024-02-01T06:15:20.713Z,97089.63
2024-02-01T06:17:49.309Z,97102.09
2024-02-01T06:20:18.286Z,97089.47
2024-02-01T06:22:48.298Z,97077.91
2024-02-01T06:25:17.090Z,97088.03
2024-02-01T06:27:45.661Z,97091.88
2024-02-01T06:30:14.918Z,97093.13
2024-02-01T06:32:44.078Z,97072.50
2024-02-01T06:35:24.427Z,97080.03
2024-02-01T06:38:06.622Z,97075.84
2024-02-01T06:41:08.387Z,97084.84
2024-02-01T06:44:03.306Z,97076.31
2024-02-01T06:46:50.960Z,97083.75
2024-02-01T06:49:33.927Z,97102.16
2024-02-01T06:52:15.477Z,97091.13
2024-02-01T06:54:57.124Z,97101.06
2024-02-01T06:57:25.061Z,97105.13
2024-02-01T07:00:07.561Z,97116.75
2024-02-01T07:02:37.619Z,97108.25
2024-02-01T07:05:12.563Z,97104.03
2024-02-01T07:07:44.349Z,97115.72
2024-02-01T07:10:18.182Z,97113.00
2024-02-01T07:12:54.906Z,97119.63
2024-02-01T07:15:33.192Z,97106.28
2024-02-01T07:18:07.949Z,97113.72
2024-02-01T07:20:48.595Z,97118.78
2024-02-01T07:23:39.854Z,97107.81
2024-02-01T07:26:19.188Z,97113.78
2024-02-01T07:29:05.455Z,97115.59
2024-02-01T07:31:50.977Z,97120.06
2024-02-01T07:34:37.353Z,97120.25
2024-02-01T07:37:23.305Z,97129.50
2024-02-01T07:40:09.026Z,97147.97
2024-02-01T07:42:57.042Z,97140.56
2024-02-01T07:45:43.268Z,97148.75
2024-02-01T07:48:29.056Z,97151.97
2024-02-01T07:51:15.095Z,97154.63
2024-02-01T07:54:01.179Z,97156.91
2024-02-01T07:56:56.298Z,97160.28
2024-02-01T07:59:30.845Z,97148.47
2024-02-01T08:02:14.879Z,97167.97
2024-02-01T08:05:00.617Z,97170.22
2024-02-01T08:07:50.228Z,97178.38
2024-02-01T08:10:21.141Z,97181.81
2024-02-01T08:12:50.205Z,97166.63
2024-02-01T08:15:21.742Z,97169.16
2024-02-01T08:17:51.223Z,97173.25
2024-02-01T08:20:21.128Z,97181.53
2024-02-01T08:22:50.374Z,97164.28
2024-02-01T08:25:19.195Z,97157.19
2024-02-01T08:27:54.769Z,97154.56
2024-02-01T08:30:29.055Z,97165.22
2024-02-01T08:33:04.832Z,97151.63
2024-02-01T08:35:35.046Z,97153.22
2024-02-01T08:38:04.181Z,97158.31
2024-02-01T08:40:32.759Z,97148.03
2024-02-01T08:43:01.605Z,97148.88
2024-02-01T08:45:32.565Z,97145.19
2024-02-01T08:48:04.303Z,97129.94
2024-02-01T08:50:34.577Z,97150.63
2024-02-01T08:53:03.546Z,97160.38
2024-02-01T08:55:32.384Z,97172.25
2024-02-01T08:58:10.522Z,97179.56
2024-02-01T09:00:43.787Z,97175.22
2024-02-01T09:03:17.306Z,97171.44
2024-02-01T09:05:47.803Z,97180.41
2024-02-01T09:08:17.830Z,97166.06
2024-02-01T09:10:52.551Z,97181.03
2024-02-01T09:13:21.920Z,97177.16
2024-02-01T09:15:53.091Z,97185.53
2024-02-01T09:18:21.771Z,97191.25
2024-02-01T09:20:50.701Z,97179.31
2024-02-01T09:23:19.223Z,97179.50
2024-02-01T09:25:47.606Z,97176.78
2024-02-01T09:28:16.488Z,97167.47
2024-02-01T09:30:47.175Z,97179.22
2024-02-01T09:33:18.540Z,97185.16
2024-02-01T09:35:47.691Z,97177.06
2024-02-01T09:38:18.822Z,97182.66
2024-02-01T09:40:48.841Z,97179.75
2024-02-01T09:43:23.154Z,97169.41
2024-02-01T09:45:52.823Z,97177.09
2024-02-01T09:48:23.683Z,97167.25
2024-02-01T09:50:53.526Z,97161.25
2024-02-01T09:53:23.566Z,97158.91
2024-02-01T09:55:52.769Z,97173.69
2024-02-01T09:58:22.560Z,97174.97
2024-02-01T10:00:51.296Z,97158.66
2024-02-01T10:03:25.197Z,97155.63
2024-02-01T10:05:56.055Z,97151.28
2024-02-01T10:08:27.170Z,97159.66
2024-02-01T10:10:55.632Z,97148.97
2024-02-01T10:13:33.061Z,97141.41
2024-02-01T10:16:02.585Z,97154.56
2024-02-01T10:18:31.213Z,97150.41
2024-02-01T10:21:01.340Z,97148.84
2024-02-01T10:23:31.462Z,97126.75
2024-02-01T10:26:00.346Z,97124.38
2024-02-01T10:28:36.466Z,97133.06
2024-02-01T10:31:07.433Z,97131.47
2024-02-01T10:33:36.092Z,97124.81
2024-02-01T10:36:11.073Z,97131.00
2024-02-01T10:38:44.111Z,97120.38
2024-02-01T10:41:18.578Z,97123.91
2024-02-01T10:43:48.338Z,97120.44
2024-02-01T10:46:28.995Z,97130.53
2024-02-01T10:49:04.058Z,97102.78
2024-02-01T10:51:34.586Z,97120.13
2024-02-01T10:54:03.762Z,97125.03
2024-02-01T10:56:32.217Z,97122.19
2024-02-01T10:59:08.668Z,97116.88
2024-02-01T11:01:41.376Z,97122.59
2024-02-01T11:04:12.401Z,97124.84
2024-02-01T11:06:52.960Z,97106.78
2024-02-01T11:09:27.717Z,97119.91
2024-02-01T11:11:58.942Z,97107.63
2024-02-01T11:14:29.275Z,97109.50
2024-02-01T11:16:59.784Z,97105.22
2024-02-01T11:19:35.307Z,97103.28
2024-02-01T11:22:08.617Z,97105.84
2024-02-01T11:24:39.193Z,97104.66
2024-02-01T11:27:14.690Z,97104.66
2024-02-01T11:29:47.369Z,97109.41
2024-02-01T11:32:22.323Z,97111.75
2024-02-01T11:34:54.852Z,97116.53
2024-02-01T11:37:28.189Z,97113.84
2024-02-01T11:39:58.146Z,97120.56
2024-02-01T11:42:32.468Z,97115.88
2024-02-01T11:45:05.684Z,97119.34
2024-02-01T11:47:35.598Z,97119.19
2024-02-01T11:50:04.628Z,97116.47
2024-02-01T11:52:45.338Z,97122.16
2024-02-01T11:55:16.077Z,97121.91
2024-02-01T11:57:49.259Z,97120.56
2024-02-01T12:00:28.129Z,97111.09
2024-02-01T12:03:07.079Z,97111.88
2024-02-01T12:05:35.606Z,97110.66
2024-02-01T12:08:08.041Z,97111.38
2024-02-01T12:10:37.020Z,97113.38
2024-02-01T12:13:06.474Z,97104.19
2024-02-01T12:15:38.081Z,97112.28
2024-02-01T12:18:10.358Z,97109.50
2024-02-01T12:20:42.740Z,97109.75
2024-02-01T12:23:14.384Z,97105.22
2024-02-01T12:25:47.681Z,97079.97
2024-02-01T12:28:16.677Z,97104.06
2024-02-01T12:30:46.750Z,97088.00
2024-02-01T12:33:16.514Z,97088.25
2024-02-01T12:35:47.085Z,97086.41
2024-02-01T12:38:17.913Z,97082.22
2024-02-01T12:40:47.991Z,97078.72
2024-02-01T12:43:16.852Z,97084.75
2024-02-01T12:45:48.914Z,97084.03
2024-02-01T12:48:18.868Z,97079.03
2024-02-01T12:50:47.872Z,97073.53
2024-02-01T12:53:18.020Z,97081.84
2024-02-01T12:55:46.472Z,97076.72
2024-02-01T12:58:19.676Z,97082.09
2024-02-01T13:00:48.319Z,97071.66
2024-02-01T13:03:17.055Z,97070.28
2024-02-01T13:05:46.369Z,97080.25
2024-02-01T13:08:17.077Z,97076.31
2024-02-01T13:10:47.514Z,97073.47
2024-02-01T13:13:15.857Z,97069.47
2024-02-01T13:15:47.955Z,97060.88
2024-02-01T13:18:16.772Z,97075.38
2024-02-01T13:20:45.408Z,97085.88
2024-02-01T13:23:14.421Z,97083.16
2024-02-01T13:25:43.486Z,97077.25
2024-02-01T13:28:13.925Z,97073.28
2024-02-01T13:30:45.014Z,97071.66
2024-02-01T13:33:14.706Z,97073.94
2024-02-01T13:35:43.552Z,97087.53
2024-02-01T13:38:12.988Z,97089.22
2024-02-01T13:40:45.093Z,97081.16
2024-02-01T13:43:15.093Z,97082.56
2024-02-01T13:45:43.568Z,97099.97
2024-02-01T13:48:13.649Z,97093.25
2024-02-01T13:50:42.753Z,97109.50
2024-02-01T13:53:18.740Z,97109.38
2024-02-01T13:55:49.423Z,97106.00
2024-02-01T13:58:19.388Z,97098.22
2024-02-01T14:00:55.764Z,97106.59
2024-02-01T14:03:28.519Z,97113.03
2024-02-01T14:05:57.463Z,97093.97
2024-02-01T14:08:26.349Z,97102.78
2024-02-01T14:10:55.281Z,97096.44
2024-02-01T14:13:25.842Z,97098.88
2024-02-01T14:15:54.481Z,97099.47
2024-02-01T14:18:25.299Z,97108.44
2024-02-01T14:20:54.261Z,97107.63
2024-02-01T14:23:24.226Z,97106.91
2024-02-01T14:25:52.597Z,97111.03
2024-02-01T14:28:21.733Z,97108.97
2024-02-01T14:30:51.663Z,97111.56
2024-02-01T14:33:22.156Z,97117.91
2024-02-01T14:35:51.682Z,97118.34
2024-02-01T14:38:20.407Z,97124.75
2024-02-01T14:40:49.044Z,97107.47
2024-02-01T14:43:17.653Z,97111.03
2024-02-01T14:45:46.505Z,97121.91
2024-02-01T14:48:16.657Z,97123.94
2024-02-01T14:50:45.302Z,97129.13
2024-02-01T14:53:13.959Z,97125.84
2024-02-01T14:55:42.290Z,97135.41
2024-02-01T14:58:12.554Z,97135.38
2024-02-01T15:00:41.581Z,97138.25
2024-02-01T15:03:10.278Z,97125.44
2024-02-01T15:05:40.836Z,97130.13
2024-02-01T15:08:11.447Z,97140.88
2024-02-01T15:10:40.440Z,97145.16
2024-02-01T15:13:11.837Z,97147.88
2024-02-01T15:15:43.320Z,97141.31
2024-02-01T15:18:29.099Z,97143.13
2024-02-01T15:20:59.577Z,97154.88
2024-02-01T15:23:28.127Z,97149.69
2024-02-01T15:25:56.956Z,97160.59
2024-02-01T15:28:25.399Z,97154.94
2024-02-01T15:30:54.008Z,97162.91
2024-02-01T15:33:23.661Z,97167.00
2024-02-01T15:35:53.607Z,97163.00
2024-02-01T15:38:24.626Z,97160.41
2024-02-01T15:40:53.639Z,97163.00
2024-02-01T15:43:22.276Z,97171.34
2024-02-01T15:45:52.093Z,97175.59
2024-02-01T15:48:20.940Z,97174.59
2024-02-01T15:50:49.933Z,97160.47
2024-02-01T15:53:20.048Z,97174.59
2024-02-01T15:55:51.514Z,97169.56
2024-02-01T15:58:19.934Z,97173.81
2024-02-01T16:00:48.327Z,97189.31
2024-02-01T16:03:16.924Z,97191.59
2024-02-01T16:06:08.630Z,97185.31
2024-02-01T16:08:51.728Z,97195.41
2024-02-01T16:11:23.828Z,97199.72
2024-02-01T16:13:53.533Z,97203.78
2024-02-01T16:16:34.549Z,97202.97
2024-02-01T16:19:03.909Z,97202.88
2024-02-01T16:21:34.316Z,97199.84
2024-02-01T16:24:04.632Z,97208.72
2024-02-01T16:26:34.524Z,97212.31
2024-02-01T16:29:02.845Z,97216.66
2024-02-01T16:31:31.332Z,97229.59
2024-02-01T16:34:04.959Z,97218.09
2024-02-01T16:36:53.875Z,97209.03
2024-02-01T16:39:23.944Z,97235.88
2024-02-01T16:41:59.235Z,97225.06
2024-02-01T16:44:42.506Z,97231.56
2024-02-01T16:47:15.830Z,97232.03
2024-02-01T16:49:44.972Z,97241.50
2024-02-01T16:52:24.591Z,97251.59
2024-02-01T16:54:53.407Z,97241.44
2024-02-01T16:57:23.397Z,97248.84
2024-02-01T16:59:53.262Z,97255.88
2024-02-01T17:02:42.004Z,97252.22
2024-02-01T17:05:18.713Z,97258.50
2024-02-01T17:07:47.108Z,97270.66
2024-02-01T17:10:23.176Z,97262.38
2024-02-01T17:12:53.274Z,97263.94
2024-02-01T17:15:22.055Z,97261.50
2024-02-01T17:17:50.937Z,97255.97
2024-02-01T17:20:20.846Z,97268.69
2024-02-01T17:22:49.281Z,97281.47
2024-02-01T17:25:46.205Z,97282.53
2024-02-01T17:28:38.864Z,97276.19
2024-02-01T17:31:14.825Z,97259.06
2024-02-01T17:33:56.893Z,97286.25
2024-02-01T17:36:38.185Z,97276.66
2024-02-01T17:39:08.084Z,97281.25
2024-02-01T17:41:45.269Z,97272.78
2024-02-01T17:44:31.303Z,97282.22
2024-02-01T17:47:01.411Z,97273.56
2024-02-01T17:49:42.334Z,97264.84
2024-02-01T17:52:47.448Z,97262.94
2024-02-01T17:55:22.291Z,97266.97
2024-02-01T17:57:56.035Z,97267.25
2024-02-01T18:00:27.513Z,97269.19
2024-02-01T18:02:58.638Z,97261.75
2024-02-01T18:05:34.892Z,97249.56
2024-02-01T18:08:03.941Z,97272.41
2024-02-01T18:10:39.515Z,97279.66
2024-02-01T18:13:09.513Z,97273.84
2024-02-01T18:16:08.421Z,97284.31
2024-02-01T18:18:40.386Z,97287.53
2024-02-01T18:21:09.957Z,97283.41
2024-02-01T18:23:38.862Z,97289.88
2024-02-01T18:26:09.001Z,97287.03
2024-02-01T18:28:38.760Z,97296.56
2024-02-01T18:31:10.862Z,97307.28
2024-02-01T18:33:40.834Z,97303.22
2024-02-01T18:36:15.221Z,97307.44
2024-02-01T18:39:06.022Z,97317.06
2024-02-01T18:41:35.555Z,97351.97
2024-02-01T18:44:24.302Z,97343.69
2024-02-01T18:46:58.572Z,97337.94
2024-02-01T18:49:30.068Z,97353.44
2024-02-01T18:52:02.469Z,97344.78
2024-02-01T18:54:35.032Z,97314.03
2024-02-01T18:57:04.172Z,97328.91
2024-02-01T18:59:53.925Z,97340.38
2024-02-01T19:02:58.505Z,97336.91
2024-02-01T19:05:28.555Z,97327.59
2024-02-01T19:08:00.775Z,97337.03
2024-02-01T19:10:41.496Z,97339.94
2024-02-01T19:13:37.685Z,97343.94
2024-02-01T19:16:07.376Z,97352.72
2024-02-01T19:18:38.845Z,97363.81
2024-02-01T19:21:08.978Z,97358.31
2024-02-01T19:23:37.906Z,97363.59
2024-02-01T19:26:06.971Z,97366.31
2024-02-01T19:28:48.328Z,97374.91
2024-02-01T19:31:18.783Z,97370.84
2024-02-01T19:33:52.321Z,97360.22
2024-02-01T19:36:35.871Z,97367.59
2024-02-01T19:39:10.822Z,97362.88
2024-02-01T19:41:43.391Z,97357.09
2024-02-01T19:44:12.218Z,97348.19
2024-02-01T19:46:41.301Z,97345.13
2024-02-01T19:49:10.397Z,97361.38
2024-02-01T19:51:41.623Z,97360.59
2024-02-01T19:54:10.241Z,97369.00
2024-02-01T19:56:38.769Z,97360.75
2024-02-01T19:59:07.646Z,97355.94
2024-02-01T20:01:36.207Z,97365.19
2024-02-01T20:04:04.797Z,97370.44
2024-02-01T20:06:33.626Z,97375.38
2024-02-01T20:09:04.900Z,97380.66
2024-02-01T20:11:33.505Z,97382.16
2024-02-01T20:14:03.730Z,97384.91
2024-02-01T20:16:32.881Z,97398.47
2024-02-01T20:19:01.496Z,97400.19
2024-02-01T20:21:36.654Z,97390.91
2024-02-01T20:24:08.910Z,97394.03
2024-02-01T20:26:39.755Z,97397.56
2024-02-01T20:29:12.295Z,97400.06
2024-02-01T20:31:42.177Z,97393.16
2024-02-01T20:34:12.007Z,97392.50
2024-02-01T20:36:48.836Z,97396.75
2024-02-01T20:39:33.154Z,97387.56
2024-02-01T20:42:03.780Z,97401.63
2024-02-01T20:44:34.278Z,97403.88
2024-02-01T20:47:05.723Z,97413.66
2024-02-01T20:49:34.684Z,97401.19
2024-02-01T20:52:04.285Z,97408.63
2024-02-01T20:54:35.887Z,97411.00
2024-02-01T20:57:28.855Z,97413.25
2024-02-01T20:59:58.197Z,97414.50
2024-02-01T21:03:07.785Z,97423.94
2024-02-01T21:05:39.852Z,97420.63
2024-02-01T21:08:15.443Z,97421.72
2024-02-01T21:10:46.808Z,97415.00
2024-02-01T21:13:15.716Z,97403.31
2024-02-01T21:15:45.916Z,97413.41
2024-02-01T21:18:15.984Z,97416.72
2024-02-01T21:20:46.716Z,97419.19
2024-02-01T21:23:39.022Z,97421.78
2024-02-01T21:26:30.293Z,97420.19
2024-02-01T21:29:01.417Z,97410.25
2024-02-01T21:31:47.105Z,97422.91
2024-02-01T21:34:17.292Z,97425.53
2024-02-01T21:36:46.134Z,97422.22
2024-02-01T21:39:42.689Z,97433.19
2024-02-01T21:42:48.613Z,97435.91
2024-02-01T21:45:23.379Z,97444.28
2024-02-01T21:47:52.981Z,97428.19
2024-02-01T21:50:21.670Z,97435.66
2024-02-01T21:52:50.099Z,97432.88
2024-02-01T21:55:18.501Z,97437.19
2024-02-01T21:57:48.290Z,97438.06
2024-02-01T22:00:17.214Z,97431.41
2024-02-01T22:02:46.001Z,97445.56
2024-02-01T22:05:14.717Z,97438.91
2024-02-01T22:07:43.224Z,97440.59
2024-02-01T22:10:11.941Z,97429.59
2024-02-01T22:12:41.283Z,97443.13
2024-02-01T22:15:11.780Z,97445.22
2024-02-01T22:17:40.362Z,97439.34
2024-02-01T22:20:10.353Z,97440.09
2024-02-01T22:22:41.140Z,97424.34
2024-02-01T22:25:10.724Z,97444.38
2024-02-01T22:27:39.471Z,97446.97
2024-02-01T22:30:10.178Z,97452.22
2024-02-01T22:32:42.455Z,97454.06
2024-02-01T22:35:11.388Z,97459.13
2024-02-01T22:37:40.853Z,97450.06
2024-02-01T22:40:10.941Z,97450.81
2024-02-01T22:42:39.545Z,97452.75
2024-02-01T22:45:09.157Z,97442.72
2024-02-01T22:47:37.984Z,97444.38
2024-02-01T22:50:09.140Z,97448.50
2024-02-01T22:52:37.780Z,97440.06
2024-02-01T22:55:07.308Z,97450.81
2024-02-01T22:57:35.836Z,97446.53
2024-02-01T23:00:05.499Z,97430.69
2024-02-01T23:02:34.302Z,97444.00
2024-02-01T23:05:03.013Z,97443.09
2024-02-01T23:07:33.042Z,97439.91
2024-02-01T23:10:01.632Z,97439.78
2024-02-01T23:12:30.204Z,97441.47
2024-02-01T23:14:59.283Z,97441.56
2024-02-01T23:17:27.946Z,97442.44
2024-02-01T23:19:56.541Z,97448.44
2024-02-01T23:22:25.299Z,97450.13
2024-02-01T23:24:55.503Z,97449.34
2024-02-01T23:27:24.085Z,97444.16
2024-02-01T23:29:52.576Z,97449.94
2024-02-01T23:32:21.758Z,97444.03
2024-02-01T23:34:53.041Z,97448.19
2024-02-01T23:37:21.880Z,97452.34
2024-02-01T23:39:50.493Z,97449.91
2024-02-01T23:42:20.411Z,97438.28
2024-02-01T23:44:48.851Z,97445.81
2024-02-01T23:47:18.261Z,97437.56
2024-02-01T23:49:46.777Z,97455.16
2024-02-01T23:52:16.987Z,97439.09
2024-02-01T23:54:45.508Z,97449.94
2024-02-01T23:57:13.967Z,97441.69
2024-02-01T23:59:43.729Z,97439.19
